sensor_id;sensor_type;location;lat;lon;timestamp;pressure;altitude;pressure_sealevel;temperature;humidity
78855;BME280;68206;59.956;30.234;2024-02-14T00:00:31;102324.00;;;-3.39;36.14
78855;BME280;68206;59.956;30.234;2024-02-14T00:03:00;102327.31;;;-3.42;35.66
78855;BME280;68206;59.956;30.234;2024-02-14T00:05:28;102327.41;;;-3.40;34.98
78855;BME280;68206;59.956;30.234;2024-02-14T00:07:57;102323.81;;;-3.42;36.02
78855;BME280;68206;59.956;30.234;2024-02-14T00:10:25;102335.97;;;-3.41;35.62
78855;BME280;68206;59.956;30.234;2024-02-14T00:12:53;102325.69;;;-3.40;35.26
78855;BME280;68206;59.956;30.234;2024-02-14T00:15:22;102321.41;;;-3.39;35.66
78855;BME280;68206;59.956;30.234;2024-02-14T00:17:53;102344.75;;;-3.39;35.85
78855;BME280;68206;59.956;30.234;2024-02-14T00:20:22;102327.41;;;-3.40;35.42
78855;BME280;68206;59.956;30.234;2024-02-14T00:22:58;102332.59;;;-3.40;35.15
78855;BME280;68206;59.956;30.234;2024-02-14T00:25:27;102330.78;;;-3.41;35.27
78855;BME280;68206;59.956;30.234;2024-02-14T00:27:57;102311.66;;;-3.43;35.27
78855;BME280;68206;59.956;30.234;2024-02-14T00:30:27;102335.75;;;-3.46;35.54
78855;BME280;68206;59.956;30.234;2024-02-14T00:33:17;102339.16;;;-3.47;35.29
78855;BME280;68206;59.956;30.234;2024-02-14T00:35:47;102329.66;;;-3.46;35.92
78855;BME280;68206;59.956;30.234;2024-02-14T00:38:15;102323.59;;;-3.47;35.80
78855;BME280;68206;59.956;30.234;2024-02-14T00:40:44;102327.06;;;-3.46;35.45
78855;BME280;68206;59.956;30.234;2024-02-14T00:43:12;102309.72;;;-3.47;35.25
78855;BME280;68206;59.956;30.234;2024-02-14T00:45:40;102324.31;;;-3.49;35.52
78855;BME280;68206;59.956;30.234;2024-02-14T00:48:08;102321.66;;;-3.51;35.93
78855;BME280;68206;59.956;30.234;2024-02-14T00:50:38;102295.56;;;-3.54;34.91
78855;BME280;68206;59.956;30.234;2024-02-14T00:53:06;102321.56;;;-3.52;35.28
78855;BME280;68206;59.956;30.234;2024-02-14T00:55:34;102312.09;;;-3.52;35.11
78855;BME280;68206;59.956;30.234;2024-02-14T00:58:03;102325.06;;;-3.52;35.37
78855;BME280;68206;59.956;30.234;2024-02-14T01:00:31;102316.47;;;-3.51;35.59
78855;BME280;68206;59.956;30.234;2024-02-14T01:03:02;102298.22;;;-3.52;35.23
78855;BME280;68206;59.956;30.234;2024-02-14T01:05:30;102310.41;;;-3.51;35.30
78855;BME280;68206;59.956;30.234;2024-02-14T01:08:00;102316.38;;;-3.52;35.53
78855;BME280;68206;59.956;30.234;2024-02-14T01:10:28;102302.63;;;-3.51;35.01
78855;BME280;68206;59.956;30.234;2024-02-14T01:12:56;102325.06;;;-3.52;35.69
78855;BME280;68206;59.956;30.234;2024-02-14T01:15:24;102313.78;;;-3.52;35.42
78855;BME280;68206;59.956;30.234;2024-02-14T01:17:53;102313.78;;;-3.52;35.31
78855;BME280;68206;59.956;30.234;2024-02-14T01:20:23;102311.09;;;-3.54;35.25
78855;BME280;68206;59.956;30.234;2024-02-14T01:22:51;102315.56;;;-3.51;34.92
78855;BME280;68206;59.956;30.234;2024-02-14T01:25:39;102318.09;;;-3.53;35.51
78855;BME280;68206;59.956;30.234;2024-02-14T01:28:26;102324.06;;;-3.54;35.65
78855;BME280;68206;59.956;30.234;2024-02-14T01:31:12;102306.81;;;-3.53;35.35
78855;BME280;68206;59.956;30.234;2024-02-14T01:35:02;102313.56;;;-3.57;35.39
78855;BME280;68206;59.956;30.234;2024-02-14T01:38:48;102320.44;;;-3.57;34.86
78855;BME280;68206;59.956;30.234;2024-02-14T01:46:52;102311.44;;;-3.64;35.06
78855;BME280;68206;59.956;30.234;2024-02-14T01:49:34;102308.84;;;-3.64;35.18
78855;BME280;68206;59.956;30.234;2024-02-14T01:52:04;102319.94;;;-3.67;35.47
78855;BME280;68206;59.956;30.234;2024-02-14T01:54:33;102324.16;;;-3.69;35.03
78855;BME280;68206;59.956;30.234;2024-02-14T01:57:02;102305.13;;;-3.69;35.05
78855;BME280;68206;59.956;30.234;2024-02-14T01:59:31;102327.56;;;-3.70;35.33
78855;BME280;68206;59.956;30.234;2024-02-14T02:02:03;102324.97;;;-3.70;35.47
78855;BME280;68206;59.956;30.234;2024-02-14T02:04:35;102297.41;;;-3.68;35.32
78855;BME280;68206;59.956;30.234;2024-02-14T02:07:04;102305.28;;;-3.66;34.89
78855;BME280;68206;59.956;30.234;2024-02-14T02:09:32;102312.16;;;-3.67;34.73
78855;BME280;68206;59.956;30.234;2024-02-14T02:12:00;102305.28;;;-3.66;35.22
78855;BME280;68206;59.956;30.234;2024-02-14T02:14:53;102314.03;;;-3.64;35.15
78855;BME280;68206;59.956;30.234;2024-02-14T02:17:43;102314.19;;;-3.61;35.20
78855;BME280;68206;59.956;30.234;2024-02-14T02:20:57;102307.22;;;-3.62;34.95
78855;BME280;68206;59.956;30.234;2024-02-14T02:24:31;102292.53;;;-3.61;35.44
78855;BME280;68206;59.956;30.234;2024-02-14T02:27:18;102299.59;;;-3.59;34.79
78855;BME280;68206;59.956;30.234;2024-02-14T02:31:20;102305.03;;;-3.54;35.50
78855;BME280;68206;59.956;30.234;2024-02-14T02:34:57;102284.47;;;-3.51;34.91
78855;BME280;68206;59.956;30.234;2024-02-14T02:38:34;102290.53;;;-3.51;34.66
78855;BME280;68206;59.956;30.234;2024-02-14T02:41:52;102319.22;;;-3.48;34.63
78855;BME280;68206;59.956;30.234;2024-02-14T02:44:56;102286.56;;;-3.44;34.84
78855;BME280;68206;59.956;30.234;2024-02-14T02:47:47;102303.06;;;-3.42;34.61
78855;BME280;68206;59.956;30.234;2024-02-14T02:50:37;102294.56;;;-3.40;35.11
78855;BME280;68206;59.956;30.234;2024-02-14T02:53:25;102298.16;;;-3.38;34.64
78855;BME280;68206;59.956;30.234;2024-02-14T02:56:16;102294.00;;;-3.34;34.39
78855;BME280;68206;59.956;30.234;2024-02-14T02:58:47;102283.72;;;-3.33;34.62
78855;BME280;68206;59.956;30.234;2024-02-14T03:01:15;102285.53;;;-3.30;33.84
78855;BME280;68206;59.956;30.234;2024-02-14T03:04:03;102292.59;;;-3.28;34.79
78855;BME280;68206;59.956;30.234;2024-02-14T03:06:52;102290.16;;;-3.25;35.00
78855;BME280;68206;59.956;30.234;2024-02-14T03:09:40;102280.66;;;-3.24;34.47
78855;BME280;68206;59.956;30.234;2024-02-14T03:12:32;102286.84;;;-3.22;33.90
78855;BME280;68206;59.956;30.234;2024-02-14T03:15:23;102298.13;;;-3.21;34.85
78855;BME280;68206;59.956;30.234;2024-02-14T03:17:52;102290.47;;;-3.18;33.83
78855;BME280;68206;59.956;30.234;2024-02-14T03:20:21;102290.47;;;-3.18;34.41
78855;BME280;68206;59.956;30.234;2024-02-14T03:22:50;102299.22;;;-3.16;34.57
78855;BME280;68206;59.956;30.234;2024-02-14T03:25:19;102289.84;;;-3.14;34.31
78855;BME280;68206;59.956;30.234;2024-02-14T03:27:58;102286.34;;;-3.15;33.71
78855;BME280;68206;59.956;30.234;2024-02-14T03:30:27;102299.31;;;-3.15;34.29
78855;BME280;68206;59.956;30.234;2024-02-14T03:32:56;102297.69;;;-3.13;33.77
78855;BME280;68206;59.956;30.234;2024-02-14T03:35:25;102305.53;;;-3.11;34.11
78855;BME280;68206;59.956;30.234;2024-02-14T03:37:53;102305.63;;;-3.10;34.20
78855;BME280;68206;59.956;30.234;2024-02-14T03:40:23;102311.78;;;-3.08;33.98
78855;BME280;68206;59.956;30.234;2024-02-14T03:42:51;102320.53;;;-3.06;34.08
78855;BME280;68206;59.956;30.234;2024-02-14T03:45:20;102317.94;;;-3.06;33.55
78855;BME280;68206;59.956;30.234;2024-02-14T03:47:49;102332.69;;;-3.05;34.10
78855;BME280;68206;59.956;30.234;2024-02-14T03:50:30;102333.59;;;-3.04;33.30
78855;BME280;68206;59.956;30.234;2024-02-14T03:53:28;102315.41;;;-3.04;33.93
78855;BME280;68206;59.956;30.234;2024-02-14T03:55:59;102316.31;;;-3.04;33.45
78855;BME280;68206;59.956;30.234;2024-02-14T03:58:28;102312.03;;;-3.03;33.53
78855;BME280;68206;59.956;30.234;2024-02-14T04:00:57;102338.88;;;-3.03;33.55
78855;BME280;68206;59.956;30.234;2024-02-14T04:03:30;102309.50;;;-3.02;33.92
78855;BME280;68206;59.956;30.234;2024-02-14T04:06:05;102330.28;;;-3.02;33.26
78855;BME280;68206;59.956;30.234;2024-02-14T04:09:01;102312.19;;;-3.00;33.62
78855;BME280;68206;59.956;30.234;2024-02-14T04:11:30;102320.84;;;-3.00;33.32
78855;BME280;68206;59.956;30.234;2024-02-14T04:13:58;102318.19;;;-3.01;33.21
78855;BME280;68206;59.956;30.234;2024-02-14T04:16:28;102328.63;;;-3.00;33.09
78855;BME280;68206;59.956;30.234;2024-02-14T04:18:58;102318.31;;;-2.98;32.95
78855;BME280;68206;59.956;30.234;2024-02-14T04:21:27;102317.44;;;-2.99;33.39
78855;BME280;68206;59.956;30.234;2024-02-14T04:23:56;102319.31;;;-2.96;33.37
78855;BME280;68206;59.956;30.234;2024-02-14T04:26:37;102336.66;;;-2.95;32.97
78855;BME280;68206;59.956;30.234;2024-02-14T04:29:59;102311.59;;;-2.95;33.49
78855;BME280;68206;59.956;30.234;2024-02-14T04:33:03;102322.03;;;-2.93;33.05
78855;BME280;68206;59.956;30.234;2024-02-14T04:35:41;102321.19;;;-2.94;33.26
78855;BME280;68206;59.956;30.234;2024-02-14T04:38:40;102316.00;;;-2.94;33.56
78855;BME280;68206;59.956;30.234;2024-02-14T04:42:21;102316.84;;;-2.93;33.00
78855;BME280;68206;59.956;30.234;2024-02-14T04:45:38;102316.84;;;-2.93;33.58
78855;BME280;68206;59.956;30.234;2024-02-14T04:48:24;102313.44;;;-2.92;33.14
78855;BME280;68206;59.956;30.234;2024-02-14T04:52:29;102333.31;;;-2.93;32.96
78855;BME280;68206;59.956;30.234;2024-02-14T04:56:17;102323.81;;;-2.92;33.47
78855;BME280;68206;59.956;30.234;2024-02-14T04:58:49;102332.50;;;-2.92;33.14
78855;BME280;68206;59.956;30.234;2024-02-14T05:02:25;102338.69;;;-2.90;32.81
78855;BME280;68206;59.956;30.234;2024-02-14T05:06:13;102318.72;;;-2.91;32.96
78855;BME280;68206;59.956;30.234;2024-02-14T05:14:25;102314.44;;;-2.90;32.58
78855;BME280;68206;59.956;30.234;2024-02-14T05:18:09;102325.69;;;-2.90;33.61
78855;BME280;68206;59.956;30.234;2024-02-14T05:22:01;102372.44;;;-2.90;32.72
78855;BME280;68206;59.956;30.234;2024-02-14T05:25:24;102347.44;;;-2.88;33.23
78855;BME280;68206;59.956;30.234;2024-02-14T05:37:50;102344.25;;;-2.82;32.49
78855;BME280;68206;59.956;30.234;2024-02-14T05:41:44;102353.88;;;-2.79;32.67
78855;BME280;68206;59.956;30.234;2024-02-14T05:45:30;102362.66;;;-2.77;33.18
78855;BME280;68206;59.956;30.234;2024-02-14T05:49:29;102348.94;;;-2.75;32.94
78855;BME280;68206;59.956;30.234;2024-02-14T06:02:59;102353.91;;;-2.62;32.88
78855;BME280;68206;59.956;30.234;2024-02-14T06:06:21;102362.78;;;-2.58;32.45
78855;BME280;68206;59.956;30.234;2024-02-14T06:13:21;102362.25;;;-2.51;32.92
78855;BME280;68206;59.956;30.234;2024-02-14T06:17:44;102359.88;;;-2.47;32.53
78855;BME280;68206;59.956;30.234;2024-02-14T06:21:39;102356.56;;;-2.44;32.49
78855;BME280;68206;59.956;30.234;2024-02-14T06:29:29;102351.56;;;-2.39;32.18
78855;BME280;68206;59.956;30.234;2024-02-14T06:34:59;102353.41;;;-2.37;32.21
78855;BME280;68206;59.956;30.234;2024-02-14T06:37:50;102375.19;;;-2.35;32.27
78855;BME280;68206;59.956;30.234;2024-02-14T06:41:50;102361.47;;;-2.32;32.77
78855;BME280;68206;59.956;30.234;2024-02-14T06:46:34;102359.88;;;-2.29;32.97
78855;BME280;68206;59.956;30.234;2024-02-14T06:55:14;102344.75;;;-2.20;32.41
78855;BME280;68206;59.956;30.234;2024-02-14T06:58:54;102356.16;;;-2.16;31.91
78855;BME280;68206;59.956;30.234;2024-02-14T07:01:54;102361.53;;;-2.13;32.66
78855;BME280;68206;59.956;30.234;2024-02-14T07:04:39;102362.56;;;-2.10;32.33
78855;BME280;68206;59.956;30.234;2024-02-14T07:07:08;102355.78;;;-2.06;31.83
78855;BME280;68206;59.956;30.234;2024-02-14T07:09:36;102361.88;;;-2.06;32.18
78855;BME280;68206;59.956;30.234;2024-02-14T07:12:07;102350.75;;;-2.03;31.96
78855;BME280;68206;59.956;30.234;2024-02-14T07:15:35;102344.72;;;-2.02;32.25
78855;BME280;68206;59.956;30.234;2024-02-14T07:18:42;102345.09;;;-1.94;31.54
78855;BME280;68206;59.956;30.234;2024-02-14T07:21:11;102344.25;;;-1.93;32.46
78855;BME280;68206;59.956;30.234;2024-02-14T07:23:39;102344.50;;;-1.89;31.25
78855;BME280;68206;59.956;30.234;2024-02-14T07:26:07;102348.03;;;-1.87;31.55
78855;BME280;68206;59.956;30.234;2024-02-14T07:28:37;102343.88;;;-1.83;32.32
78855;BME280;68206;59.956;30.234;2024-02-14T07:31:05;102355.25;;;-1.81;32.15
78855;BME280;68206;59.956;30.234;2024-02-14T07:33:34;102344.97;;;-1.78;31.97
78855;BME280;68206;59.956;30.234;2024-02-14T07:36:07;102376.38;;;-1.74;31.56
78855;BME280;68206;59.956;30.234;2024-02-14T07:38:39;102350.63;;;-1.69;31.76
78855;BME280;68206;59.956;30.234;2024-02-14T07:41:11;102350.00;;;-1.64;31.73
78855;BME280;68206;59.956;30.234;2024-02-14T07:44:02;102338.16;;;-1.57;31.63
78855;BME280;68206;59.956;30.234;2024-02-14T07:46:41;102364.31;;;-1.54;31.73
78855;BME280;68206;59.956;30.234;2024-02-14T07:49:16;102334.78;;;-1.54;32.17
78855;BME280;68206;59.956;30.234;2024-02-14T07:51:48;102343.69;;;-1.49;31.50
78855;BME280;68206;59.956;30.234;2024-02-14T07:54:18;102341.97;;;-1.49;31.34
78855;BME280;68206;59.956;30.234;2024-02-14T07:56:49;102340.34;;;-1.47;31.55
78855;BME280;68206;59.956;30.234;2024-02-14T07:59:22;102340.50;;;-1.44;31.12
78855;BME280;68206;59.956;30.234;2024-02-14T08:01:54;102348.44;;;-1.41;31.26
78855;BME280;68206;59.956;30.234;2024-02-14T08:04:23;102338.03;;;-1.41;31.32
78855;BME280;68206;59.956;30.234;2024-02-14T08:06:51;102345.75;;;-1.42;31.14
78855;BME280;68206;59.956;30.234;2024-02-14T08:09:20;102340.81;;;-1.36;31.63
78855;BME280;68206;59.956;30.234;2024-02-14T08:11:48;102360.00;;;-1.34;31.58
78855;BME280;68206;59.956;30.234;2024-02-14T08:14:20;102349.72;;;-1.31;30.84
78855;BME280;68206;59.956;30.234;2024-02-14T08:16:50;102344.75;;;-1.27;31.19
78855;BME280;68206;59.956;30.234;2024-02-14T08:19:18;102401.31;;;-1.23;30.90
78855;BME280;68206;59.956;30.234;2024-02-14T08:21:47;102353.75;;;-1.18;30.86
78855;BME280;68206;59.956;30.234;2024-02-14T08:24:15;102356.50;;;-1.15;30.69
78855;BME280;68206;59.956;30.234;2024-02-14T08:26:44;102373.09;;;-1.13;30.86
78855;BME280;68206;59.956;30.234;2024-02-14T08:29:12;102364.50;;;-1.11;31.08
78855;BME280;68206;59.956;30.234;2024-02-14T08:31:42;102358.56;;;-1.08;30.70
78855;BME280;68206;59.956;30.234;2024-02-14T08:34:11;102384.66;;;-1.07;30.64
78855;BME280;68206;59.956;30.234;2024-02-14T08:36:39;102396.91;;;-1.04;30.63
78855;BME280;68206;59.956;30.234;2024-02-14T08:39:08;102390.06;;;-1.02;31.06
78855;BME280;68206;59.956;30.234;2024-02-14T08:41:37;102363.25;;;-1.00;30.44
78855;BME280;68206;59.956;30.234;2024-02-14T08:44:05;102350.31;;;-0.98;30.85
78855;BME280;68206;59.956;30.234;2024-02-14T08:46:33;102379.91;;;-0.96;30.39
78855;BME280;68206;59.956;30.234;2024-02-14T08:49:03;102393.03;;;-0.95;30.80
78855;BME280;68206;59.956;30.234;2024-02-14T08:51:38;102382.66;;;-0.93;30.50
78855;BME280;68206;59.956;30.234;2024-02-14T08:54:06;102401.09;;;-0.89;30.97
78855;BME280;68206;59.956;30.234;2024-02-14T08:56:36;102387.31;;;-0.86;30.21
78855;BME280;68206;59.956;30.234;2024-02-14T08:59:05;102389.00;;;-0.87;30.47
78855;BME280;68206;59.956;30.234;2024-02-14T09:02:08;102371.00;;;-0.82;30.18
78855;BME280;68206;59.956;30.234;2024-02-14T09:06:24;102386.75;;;-0.79;30.56
78855;BME280;68206;59.956;30.234;2024-02-14T09:10:09;102388.47;;;-0.79;30.21
78855;BME280;68206;59.956;30.234;2024-02-14T09:18:12;102379.06;;;-0.76;29.94
78855;BME280;68206;59.956;30.234;2024-02-14T09:30:09;102375.03;;;-0.69;30.23
78855;BME280;68206;59.956;30.234;2024-02-14T09:34:29;102373.34;;;-0.67;30.89
78855;BME280;68206;59.956;30.234;2024-02-14T09:38:22;102394.25;;;-0.66;30.22
78855;BME280;68206;59.956;30.234;2024-02-14T09:43:02;102397.75;;;-0.65;30.50
78855;BME280;68206;59.956;30.234;2024-02-14T09:46:46;102384.81;;;-0.64;30.85
78855;BME280;68206;59.956;30.234;2024-02-14T09:50:30;102392.66;;;-0.62;30.57
78855;BME280;68206;59.956;30.234;2024-02-14T09:53:28;102384.03;;;-0.61;30.69
78855;BME280;68206;59.956;30.234;2024-02-14T09:57:11;102392.81;;;-0.59;30.62
78855;BME280;68206;59.956;30.234;2024-02-14T10:08:57;102395.19;;;-0.45;30.34
78855;BME280;68206;59.956;30.234;2024-02-14T10:16:51;102390.16;;;-0.40;30.72
78855;BME280;68206;59.956;30.234;2024-02-14T10:20:58;102371.00;;;-0.41;30.65
78855;BME280;68206;59.956;30.234;2024-02-14T10:34:06;102384.88;;;-0.42;30.95
78855;BME280;68206;59.956;30.234;2024-02-14T10:38:00;102410.94;;;-0.42;31.20
78855;BME280;68206;59.956;30.234;2024-02-14T10:42:35;102392.75;;;-0.40;31.75
78855;BME280;68206;59.956;30.234;2024-02-14T10:46:52;102417.19;;;-0.38;31.79
78855;BME280;68206;59.956;30.234;2024-02-14T11:04:53;102387.97;;;-0.29;32.96
78855;BME280;68206;59.956;30.234;2024-02-14T11:07:23;102387.09;;;-0.30;33.18
78855;BME280;68206;59.956;30.234;2024-02-14T11:10:04;102380.88;;;-0.33;33.42
78855;BME280;68206;59.956;30.234;2024-02-14T11:12:36;102395.72;;;-0.31;33.62
78855;BME280;68206;59.956;30.234;2024-02-14T11:15:11;102414.88;;;-0.30;33.81
78855;BME280;68206;59.956;30.234;2024-02-14T11:17:40;102386.97;;;-0.33;33.89
78855;BME280;68206;59.956;30.234;2024-02-14T11:20:17;102381.13;;;-0.27;34.46
78855;BME280;68206;59.956;30.234;2024-02-14T11:22:53;102403.75;;;-0.26;34.47
78855;BME280;68206;59.956;30.234;2024-02-14T11:25:28;102382.91;;;-0.26;34.37
78855;BME280;68206;59.956;30.234;2024-02-14T11:27:58;102387.22;;;-0.27;34.66
78855;BME280;68206;59.956;30.234;2024-02-14T11:30:31;102392.50;;;-0.25;35.02
78855;BME280;68206;59.956;30.234;2024-02-14T11:33:21;102391.66;;;-0.24;35.18
78855;BME280;68206;59.956;30.234;2024-02-14T11:35:54;102384.69;;;-0.25;35.18
78855;BME280;68206;59.956;30.234;2024-02-14T11:38:25;102381.94;;;-0.28;35.76
78855;BME280;68206;59.956;30.234;2024-02-14T11:40:54;102401.72;;;-0.33;35.93
78855;BME280;68206;59.956;30.234;2024-02-14T11:43:24;102380.72;;;-0.36;36.02
78855;BME280;68206;59.956;30.234;2024-02-14T11:45:54;102384.13;;;-0.39;36.51
78855;BME280;68206;59.956;30.234;2024-02-14T11:48:22;102379.66;;;-0.42;36.86
78855;BME280;68206;59.956;30.234;2024-02-14T11:50:53;102383.78;;;-0.47;37.04
78855;BME280;68206;59.956;30.234;2024-02-14T11:53:22;102385.41;;;-0.50;37.16
78855;BME280;68206;59.956;30.234;2024-02-14T11:55:51;102400.00;;;-0.54;37.71
78855;BME280;68206;59.956;30.234;2024-02-14T11:58:19;102385.09;;;-0.56;37.62
78855;BME280;68206;59.956;30.234;2024-02-14T12:00:47;102369.44;;;-0.58;37.47
78855;BME280;68206;59.956;30.234;2024-02-14T12:03:18;102374.50;;;-0.61;37.69
78855;BME280;68206;59.956;30.234;2024-02-14T12:05:50;102370.06;;;-0.63;38.06
78855;BME280;68206;59.956;30.234;2024-02-14T12:08:21;102358.59;;;-0.67;38.62
78855;BME280;68206;59.956;30.234;2024-02-14T12:10:51;102366.31;;;-0.70;38.37
78855;BME280;68206;59.956;30.234;2024-02-14T12:13:21;102343.44;;;-0.77;38.40
78855;BME280;68206;59.956;30.234;2024-02-14T12:15:50;102362.56;;;-0.76;38.68
78855;BME280;68206;59.956;30.234;2024-02-14T12:18:20;102384.22;;;-0.77;38.77
78855;BME280;68206;59.956;30.234;2024-02-14T12:20:49;102394.47;;;-0.81;39.09
78855;BME280;68206;59.956;30.234;2024-02-14T12:23:24;102370.09;;;-0.83;38.76
78855;BME280;68206;59.956;30.234;2024-02-14T12:25:54;102355.13;;;-0.88;38.93
78855;BME280;68206;59.956;30.234;2024-02-14T12:28:30;102361.13;;;-0.89;38.98
78855;BME280;68206;59.956;30.234;2024-02-14T12:30:58;102362.16;;;-0.86;38.96
78855;BME280;68206;59.956;30.234;2024-02-14T12:33:27;102356.25;;;-0.82;38.88
78855;BME280;68206;59.956;30.234;2024-02-14T12:35:57;102358.09;;;-0.79;38.79
78855;BME280;68206;59.956;30.234;2024-02-14T12:38:27;102348.81;;;-0.72;39.36
78855;BME280;68206;59.956;30.234;2024-02-14T12:40:55;102343.75;;;-0.69;38.99
78855;BME280;68206;59.956;30.234;2024-02-14T12:43:24;102345.66;;;-0.65;39.04
78855;BME280;68206;59.956;30.234;2024-02-14T12:45:52;102353.59;;;-0.62;38.99
78855;BME280;68206;59.956;30.234;2024-02-14T12:48:22;102361.63;;;-0.58;38.76
78855;BME280;68206;59.956;30.234;2024-02-14T12:50:54;102347.88;;;-0.54;38.53
78855;BME280;68206;59.956;30.234;2024-02-14T12:53:23;102331.41;;;-0.53;39.09
78855;BME280;68206;59.956;30.234;2024-02-14T12:55:52;102348.13;;;-0.48;38.61
78855;BME280;68206;59.956;30.234;2024-02-14T12:58:21;102340.44;;;-0.45;38.91
78855;BME280;68206;59.956;30.234;2024-02-14T13:00:49;102347.56;;;-0.41;38.78
78855;BME280;68206;59.956;30.234;2024-02-14T13:03:17;102353.78;;;-0.37;38.87
78855;BME280;68206;59.956;30.234;2024-02-14T13:05:46;102357.41;;;-0.33;38.63
78855;BME280;68206;59.956;30.234;2024-02-14T13:08:15;102363.63;;;-0.30;38.64
78855;BME280;68206;59.956;30.234;2024-02-14T13:10:44;102368.09;;;-0.27;38.58
78855;BME280;68206;59.956;30.234;2024-02-14T13:13:13;102361.25;;;-0.24;38.60
78855;BME280;68206;59.956;30.234;2024-02-14T13:15:42;102347.47;;;-0.21;38.48
78855;BME280;68206;59.956;30.234;2024-02-14T13:18:12;102357.19;;;-0.17;38.85
78855;BME280;68206;59.956;30.234;2024-02-14T13:20:40;102348.31;;;-0.22;38.73
78855;BME280;68206;59.956;30.234;2024-02-14T13:23:09;102366.06;;;-0.12;38.43
78855;BME280;68206;59.956;30.234;2024-02-14T13:25:39;102359.22;;;-0.10;38.41
78855;BME280;68206;59.956;30.234;2024-02-14T13:28:07;102363.59;;;-0.09;38.40
78855;BME280;68206;59.956;30.234;2024-02-14T13:30:37;102372.44;;;-0.06;38.06
78855;BME280;68206;59.956;30.234;2024-02-14T13:33:05;102363.78;;;-0.05;38.27
78855;BME280;68206;59.956;30.234;2024-02-14T13:35:33;102367.28;;;-0.04;38.45
78855;BME280;68206;59.956;30.234;2024-02-14T13:38:05;102386.50;;;-0.02;38.31
78855;BME280;68206;59.956;30.234;2024-02-14T13:40:33;102363.91;;;-0.02;38.28
78855;BME280;68206;59.956;30.234;2024-02-14T13:43:02;102366.59;;;0.00;38.17
78855;BME280;68206;59.956;30.234;2024-02-14T13:45:42;102378.78;;;0.01;38.52
78855;BME280;68206;59.956;30.234;2024-02-14T13:48:11;102364.91;;;0.02;38.21
78855;BME280;68206;59.956;30.234;2024-02-14T13:50:40;102360.59;;;0.03;38.50
78855;BME280;68206;59.956;30.234;2024-02-14T13:53:10;102377.13;;;0.03;38.01
78855;BME280;68206;59.956;30.234;2024-02-14T13:55:38;102365.88;;;0.04;38.04
78855;BME280;68206;59.956;30.234;2024-02-14T13:58:07;102378.91;;;0.04;38.15
78855;BME280;68206;59.956;30.234;2024-02-14T14:00:42;102371.16;;;0.06;38.23
78855;BME280;68206;59.956;30.234;2024-02-14T14:03:11;102366.84;;;0.06;38.52
78855;BME280;68206;59.956;30.234;2024-02-14T14:05:39;102389.41;;;0.06;38.02
78855;BME280;68206;59.956;30.234;2024-02-14T14:08:08;102378.13;;;0.07;38.21
78855;BME280;68206;59.956;30.234;2024-02-14T14:10:37;102368.59;;;0.07;38.20
78855;BME280;68206;59.956;30.234;2024-02-14T14:13:05;102376.38;;;0.06;38.25
78855;BME280;68206;59.956;30.234;2024-02-14T14:15:35;102359.88;;;0.07;38.08
78855;BME280;68206;59.956;30.234;2024-02-14T14:18:05;102381.69;;;0.09;38.13
78855;BME280;68206;59.956;30.234;2024-02-14T14:20:36;102379.91;;;0.08;38.04
78855;BME280;68206;59.956;30.234;2024-02-14T14:23:04;102379.16;;;0.10;38.19
78855;BME280;68206;59.956;30.234;2024-02-14T14:25:33;102389.59;;;0.10;37.96
78855;BME280;68206;59.956;30.234;2024-02-14T14:28:02;102375.66;;;0.10;38.11
78855;BME280;68206;59.956;30.234;2024-02-14T14:30:33;102366.88;;;0.08;37.96
78855;BME280;68206;59.956;30.234;2024-02-14T14:33:01;102390.34;;;0.08;38.01
78855;BME280;68206;59.956;30.234;2024-02-14T14:35:31;102385.28;;;0.11;38.10
78855;BME280;68206;59.956;30.234;2024-02-14T14:38:00;102380.06;;;0.11;38.19
78855;BME280;68206;59.956;30.234;2024-02-14T14:40:29;102401.81;;;0.11;38.04
78855;BME280;68206;59.956;30.234;2024-02-14T14:42:58;102377.44;;;0.11;38.20
78855;BME280;68206;59.956;30.234;2024-02-14T14:45:26;102380.94;;;0.11;38.23
78855;BME280;68206;59.956;30.234;2024-02-14T14:47:55;102384.38;;;0.10;37.96
78855;BME280;68206;59.956;30.234;2024-02-14T14:50:24;102380.81;;;0.08;38.19
78855;BME280;68206;59.956;30.234;2024-02-14T14:52:54;102385.28;;;0.11;38.40
78855;BME280;68206;59.956;30.234;2024-02-14T14:55:22;102380.94;;;0.11;38.27
78855;BME280;68206;59.956;30.234;2024-02-14T14:57:51;102379.16;;;0.10;38.40
78855;BME280;68206;59.956;30.234;2024-02-14T15:00:23;102377.44;;;0.11;38.27
78855;BME280;68206;59.956;30.234;2024-02-14T15:02:51;102380.06;;;0.11;38.22
78855;BME280;68206;59.956;30.234;2024-02-14T15:05:21;102370.50;;;0.11;38.84
78855;BME280;68206;59.956;30.234;2024-02-14T15:07:49;102380.13;;;0.12;38.43
78855;BME280;68206;59.956;30.234;2024-02-14T15:10:19;102380.81;;;0.08;38.43
78855;BME280;68206;59.956;30.234;2024-02-14T15:12:48;102384.47;;;0.13;38.43
78855;BME280;68206;59.956;30.234;2024-02-14T15:15:16;102380.22;;;0.15;38.36
78855;BME280;68206;59.956;30.234;2024-02-14T15:17:46;102381.94;;;0.15;38.47
78855;BME280;68206;59.956;30.234;2024-02-14T15:20:14;102380.22;;;0.15;38.55
78855;BME280;68206;59.956;30.234;2024-02-14T15:22:42;102379.41;;;0.16;38.56
78855;BME280;68206;59.956;30.234;2024-02-14T15:25:11;102373.34;;;0.17;38.56
78855;BME280;68206;59.956;30.234;2024-02-14T15:27:40;102377.69;;;0.17;38.63
78855;BME280;68206;59.956;30.234;2024-02-14T15:30:22;102393.41;;;0.18;38.64
78855;BME280;68206;59.956;30.234;2024-02-14T15:33:08;102385.56;;;0.18;38.64
78855;BME280;68206;59.956;30.234;2024-02-14T15:35:52;102385.56;;;0.18;38.56
78855;BME280;68206;59.956;30.234;2024-02-14T15:38:22;102381.25;;;0.19;38.58
78855;BME280;68206;59.956;30.234;2024-02-14T15:40:52;102385.50;;;0.17;38.68
78855;BME280;68206;59.956;30.234;2024-02-14T15:43:25;102383.78;;;0.17;38.54
78855;BME280;68206;59.956;30.234;2024-02-14T15:45:55;102383.84;;;0.19;38.95